createdAt,value
2023-03-28T00:00:41.577Z,0.02
2023-03-28T00:01:52.056Z,0.00
2023-03-28T00:02:54.951Z,-0.00
2023-03-28T00:03:57.884Z,-0.00
2023-03-28T00:05:00.825Z,-0.01
2023-03-28T00:06:09.659Z,-0.02
2023-03-28T00:07:12.938Z,-0.03
2023-03-28T00:08:17.848Z,-0.04
2023-03-28T00:09:20.963Z,-0.06
2023-03-28T00:10:24.080Z,-0.06
2023-03-28T00:11:27.112Z,-0.06
2023-03-28T00:12:30.025Z,-0.06
2023-03-28T00:13:33.740Z,-0.07
2023-03-28T00:14:38.352Z,-0.07
2023-03-28T00:15:42.728Z,-0.08
2023-03-28T00:16:45.844Z,-0.08
2023-03-28T00:17:49.341Z,-0.09
2023-03-28T00:18:52.744Z,-0.10
2023-03-28T00:19:55.593Z,-0.10
2023-03-28T00:20:58.955Z,-0.09
2023-03-28T00:22:02.012Z,-0.08
2023-03-28T00:23:04.976Z,-0.09
2023-03-28T00:24:14.014Z,-0.09
2023-03-28T00:25:18.293Z,-0.08
2023-03-28T00:26:24.675Z,-0.08
2023-03-28T00:27:27.760Z,-0.06
2023-03-28T00:28:30.589Z,-0.04
2023-03-28T00:29:34.363Z,-0.02
2023-03-28T00:30:37.614Z,-0.01
2023-03-28T00:31:40.715Z,-0.00
2023-03-28T00:32:43.733Z,0.02
2023-03-28T00:33:47.844Z,0.03
2023-03-28T00:34:51.155Z,0.04
2023-03-28T00:35:56.501Z,0.01
2023-03-28T00:37:02.599Z,0.02
2023-03-28T00:38:05.604Z,0.03
2023-03-28T00:39:12.085Z,0.05
2023-03-28T00:40:14.955Z,0.06
2023-03-28T00:41:18.559Z,0.08
2023-03-28T00:42:23.060Z,0.10
2023-03-28T00:43:45.924Z,0.11
2023-03-28T00:44:52.751Z,0.11
2023-03-28T00:46:06.590Z,0.12
2023-03-28T00:47:33.536Z,0.11
2023-03-28T00:48:38.154Z,0.11
2023-03-28T00:49:41.602Z,0.09
2023-03-28T00:50:48.788Z,0.08
2023-03-28T00:51:59.321Z,0.08
2023-03-28T00:53:15.457Z,0.08
2023-03-28T00:54:20.454Z,0.08
2023-03-28T00:55:36.735Z,0.08
2023-03-28T00:56:44.450Z,0.08
2023-03-28T00:57:49.142Z,0.05
2023-03-28T00:58:52.578Z,0.03
2023-03-28T00:59:55.963Z,0.03
2023-03-28T01:00:59.345Z,0.04
2023-03-28T01:02:02.610Z,0.03
2023-03-28T01:03:06.884Z,0.03
2023-03-28T01:04:10.411Z,0.04
2023-03-28T01:05:13.909Z,0.06
2023-03-28T01:06:17.073Z,0.06
2023-03-28T01:07:20.714Z,0.06
2023-03-28T01:08:30.361Z,0.03
2023-03-28T01:09:33.780Z,0.03
2023-03-28T01:10:36.773Z,0.04
2023-03-28T01:11:43.895Z,0.02
2023-03-28T01:12:48.797Z,0.03
2023-03-28T01:13:55.770Z,0.03
2023-03-28T01:15:04.584Z,0.04
2023-03-28T01:16:20.193Z,0.04
2023-03-28T01:17:25.661Z,0.02
2023-03-28T01:18:30.346Z,-0.01
2023-03-28T01:20:13.439Z,-0.03
2023-03-28T01:21:48.974Z,-0.06
2023-03-28T01:23:34.183Z,-0.08
2023-03-28T01:25:03.753Z,-0.09
2023-03-28T01:26:39.514Z,-0.10
2023-03-28T01:28:02.454Z,-0.12
2023-03-28T01:29:39.630Z,-0.12
2023-03-28T01:31:42.270Z,-0.12
2023-03-28T01:33:14.094Z,-0.12
2023-03-28T01:34:35.554Z,-0.14
2023-03-28T01:35:57.126Z,-0.14
2023-03-28T01:37:24.031Z,-0.14
2023-03-28T01:38:37.133Z,-0.13
2023-03-28T01:39:57.061Z,-0.12
2023-03-28T01:41:17.877Z,-0.09
2023-03-28T01:42:29.408Z,-0.05
2023-03-28T01:43:36.882Z,-0.03
2023-03-28T01:44:52.206Z,-0.01
2023-03-28T01:46:01.225Z,0.01
2023-03-28T01:47:25.333Z,0.04
2023-03-28T01:48:54.488Z,0.08
2023-03-28T01:50:18.386Z,0.10
2023-03-28T01:51:57.563Z,0.10
2023-03-28T01:53:12.269Z,0.10
2023-03-28T01:54:29.106Z,0.12
2023-03-28T01:55:41.475Z,0.15
2023-03-28T01:56:54.746Z,0.18
2023-03-28T01:58:06.704Z,0.18
2023-03-28T01:59:47.932Z,0.17
2023-03-28T02:01:22.993Z,0.17
2023-03-28T02:02:39.252Z,0.18
2023-03-28T02:04:20.790Z,0.21
2023-03-28T02:05:35.063Z,0.22
2023-03-28T02:06:41.861Z,0.22
2023-03-28T02:07:52.289Z,0.22
2023-03-28T02:09:02.137Z,0.20
2023-03-28T02:10:37.140Z,0.17
2023-03-28T02:12:08.536Z,0.13
2023-03-28T02:13:41.253Z,0.09
2023-03-28T02:15:13.929Z,0.08
2023-03-28T02:16:38.814Z,0.06
2023-03-28T02:18:20.585Z,0.02
2023-03-28T02:19:33.874Z,0.01
2023-03-28T02:21:01.588Z,0.00
2023-03-28T02:22:24.536Z,-0.00
2023-03-28T02:23:51.825Z,-0.04
2023-03-28T02:25:19.213Z,-0.08
2023-03-28T02:26:33.553Z,-0.11
2023-03-28T02:28:00.313Z,-0.15
2023-03-28T02:29:28.447Z,-0.20
2023-03-28T02:30:44.931Z,-0.23
2023-03-28T02:31:50.016Z,-0.24
2023-03-28T02:32:59.159Z,-0.23
2023-03-28T02:34:02.341Z,-0.24
2023-03-28T02:35:07.362Z,-0.27
2023-03-28T02:36:32.908Z,-0.30
2023-03-28T02:37:49.522Z,-0.32
2023-03-28T02:38:55.481Z,-0.36
2023-03-28T02:40:39.817Z,-0.41
2023-03-28T02:42:16.599Z,-0.44
2023-03-28T02:43:25.252Z,-0.47
2023-03-28T02:44:47.071Z,-0.49
2023-03-28T02:46:10.466Z,-0.50
2023-03-28T02:47:31.784Z,-0.51
2023-03-28T02:49:11.302Z,-0.52
2023-03-28T02:50:32.301Z,-0.56
2023-03-28T02:51:46.532Z,-0.59
2023-03-28T02:53:27.333Z,-0.62
2023-03-28T02:54:33.236Z,-0.65
2023-03-28T02:56:24.218Z,-0.68
2023-03-28T02:57:53.902Z,-0.72
2023-03-28T02:59:17.883Z,-0.75
2023-03-28T03:00:22.719Z,-0.78
2023-03-28T03:01:29.412Z,-0.79
2023-03-28T03:02:33.551Z,-0.78
2023-03-28T03:03:37.813Z,-0.80
2023-03-28T03:04:40.839Z,-0.79
2023-03-28T03:05:43.910Z,-0.79
2023-03-28T03:06:48.453Z,-0.78
2023-03-28T03:07:52.176Z,-0.78
2023-03-28T03:08:55.159Z,-0.77
2023-03-28T03:09:59.220Z,-0.76
2023-03-28T03:11:02.092Z,-0.74
2023-03-28T03:12:05.419Z,-0.75
2023-03-28T03:13:08.383Z,-0.75
2023-03-28T03:14:12.346Z,-0.73
2023-03-28T03:15:17.235Z,-0.72
2023-03-28T03:16:33.397Z,-0.69
2023-03-28T03:17:36.838Z,-0.67
2023-03-28T03:18:41.074Z,-0.66
2023-03-28T03:19:44.014Z,-0.65
2023-03-28T03:20:47.064Z,-0.63
2023-03-28T03:21:50.096Z,-0.62
2023-03-28T03:22:54.806Z,-0.63
2023-03-28T03:23:57.722Z,-0.62
2023-03-28T03:25:06.721Z,-0.60
2023-03-28T03:26:12.119Z,-0.59
2023-03-28T03:27:22.134Z,-0.57
2023-03-28T03:28:25.224Z,-0.55
2023-03-28T03:29:38.906Z,-0.52
2023-03-28T03:30:43.438Z,-0.55
2023-03-28T03:32:05.562Z,-0.57
2023-03-28T03:33:17.071Z,-0.60
2023-03-28T03:34:21.081Z,-0.62
2023-03-28T03:35:33.488Z,-0.63
2023-03-28T03:36:40.696Z,-0.63
2023-03-28T03:37:43.732Z,-0.64
2023-03-28T03:38:47.679Z,-0.65
2023-03-28T03:39:54.344Z,-0.65
2023-03-28T03:41:03.168Z,-0.67
2023-03-28T03:42:06.367Z,-0.67
2023-03-28T03:43:09.558Z,-0.67
2023-03-28T03:44:13.370Z,-0.67
2023-03-28T03:45:16.260Z,-0.67
2023-03-28T03:46:20.157Z,-0.67
2023-03-28T03:47:23.803Z,-0.68
2023-03-28T03:48:27.051Z,-0.66
2023-03-28T03:49:33.377Z,-0.66
2023-03-28T03:50:39.480Z,-0.65
2023-03-28T03:51:50.928Z,-0.66
2023-03-28T03:52:53.899Z,-0.68
2023-03-28T03:54:01.133Z,-0.71
2023-03-28T03:55:11.759Z,-0.74
2023-03-28T03:56:16.654Z,-0.74
2023-03-28T03:57:30.204Z,-0.74
2023-03-28T03:58:36.425Z,-0.74
2023-03-28T03:59:42.549Z,-0.76
2023-03-28T04:00:49.053Z,-0.79
2023-03-28T04:02:12.237Z,-0.82
2023-03-28T04:03:35.148Z,-0.87
2023-03-28T04:04:40.676Z,-0.90
2023-03-28T04:05:46.245Z,-0.91
2023-03-28T04:06:50.042Z,-0.95
2023-03-28T04:07:52.887Z,-0.96
2023-03-28T04:09:02.926Z,-0.97
2023-03-28T04:10:22.030Z,-0.97
2023-03-28T04:11:25.268Z,-0.98
2023-03-28T04:12:28.273Z,-0.98
2023-03-28T04:13:31.843Z,-0.98
2023-03-28T04:14:36.988Z,-0.99
2023-03-28T04:16:00.026Z,-1.01
2023-03-28T04:17:16.199Z,-1.02
2023-03-28T04:18:20.586Z,-1.03
2023-03-28T04:19:25.792Z,-1.03
2023-03-28T04:20:29.825Z,-1.05
2023-03-28T04:21:48.144Z,-1.06
2023-03-28T04:22:51.554Z,-1.07
2023-03-28T04:23:55.383Z,-1.06
2023-03-28T04:25:03.237Z,-1.07
2023-03-28T04:26:20.679Z,-1.08
2023-03-28T04:27:31.660Z,-1.09
2023-03-28T04:28:34.714Z,-1.10
2023-03-28T04:29:41.846Z,-1.12
2023-03-28T04:31:00.501Z,-1.13
2023-03-28T04:32:22.226Z,-1.13
2023-03-28T04:33:38.053Z,-1.14
2023-03-28T04:34:41.141Z,-1.15
2023-03-28T04:35:51.342Z,-1.17
2023-03-28T04:36:57.007Z,-1.17
2023-03-28T04:38:00.182Z,-1.18
2023-03-28T04:39:03.968Z,-1.19
2023-03-28T04:40:28.136Z,-1.21
2023-03-28T04:41:55.715Z,-1.22
2023-03-28T04:43:29.203Z,-1.26
2023-03-28T04:44:32.323Z,-1.27
2023-03-28T04:45:39.204Z,-1.29
2023-03-28T04:46:51.195Z,-1.30
2023-03-28T04:47:54.387Z,-1.33
2023-03-28T04:48:57.951Z,-1.34
2023-03-28T04:50:04.037Z,-1.37
2023-03-28T04:51:10.255Z,-1.39
2023-03-28T04:52:14.867Z,-1.40
2023-03-28T04:53:19.939Z,-1.42
2023-03-28T04:54:42.808Z,-1.43
2023-03-28T04:55:51.510Z,-1.43
2023-03-28T04:56:58.178Z,-1.41
2023-03-28T04:58:11.303Z,-1.42
2023-03-28T04:59:17.657Z,-1.42
2023-03-28T05:00:22.477Z,-1.41
2023-03-28T05:02:00.649Z,-1.40
2023-03-28T05:03:25.088Z,-1.40
2023-03-28T05:04:35.411Z,-1.38
2023-03-28T05:05:42.151Z,-1.37
2023-03-28T05:06:50.166Z,-1.38
2023-03-28T05:07:54.170Z,-1.37
2023-03-28T05:08:57.753Z,-1.36
2023-03-28T05:10:04.436Z,-1.35
2023-03-28T05:11:11.640Z,-1.34
2023-03-28T05:12:14.512Z,-1.33
2023-03-28T05:13:36.081Z,-1.31
2023-03-28T05:14:58.730Z,-1.27
2023-03-28T05:16:01.700Z,-1.20
2023-03-28T05:17:19.730Z,-1.10
2023-03-28T05:18:36.016Z,-1.00
2023-03-28T05:19:39.932Z,-0.94
2023-03-28T05:20:47.903Z,-0.88
2023-03-28T05:21:50.805Z,-0.86
2023-03-28T05:22:54.114Z,-0.84
2023-03-28T05:23:56.939Z,-0.85
2023-03-28T05:25:00.449Z,-0.82
2023-03-28T05:26:03.926Z,-0.77
2023-03-28T05:27:08.533Z,-0.72
2023-03-28T05:28:12.768Z,-0.66
2023-03-28T05:29:27.853Z,-0.62
2023-03-28T05:30:31.651Z,-0.61
2023-03-28T05:31:35.725Z,-0.61
2023-03-28T05:33:07.890Z,-0.61
2023-03-28T05:34:11.169Z,-0.61
2023-03-28T05:35:20.275Z,-0.64
2023-03-28T05:36:23.892Z,-0.64
2023-03-28T05:37:28.491Z,-0.63
2023-03-28T05:38:33.288Z,-0.63
2023-03-28T05:39:40.612Z,-0.63
2023-03-28T05:40:43.569Z,-0.61
2023-03-28T05:41:47.252Z,-0.60
2023-03-28T05:42:50.823Z,-0.61
2023-03-28T05:43:55.714Z,-0.63
2023-03-28T05:45:12.673Z,-0.64
2023-03-28T05:46:34.393Z,-0.67
2023-03-28T05:47:37.695Z,-0.67
2023-03-28T05:48:41.029Z,-0.65
2023-03-28T05:49:44.091Z,-0.63
2023-03-28T05:50:49.382Z,-0.58
2023-03-28T05:51:52.494Z,-0.54
2023-03-28T05:52:55.471Z,-0.50
2023-03-28T05:53:58.954Z,-0.47
2023-03-28T05:55:01.986Z,-0.41
2023-03-28T05:56:08.118Z,-0.37
2023-03-28T05:57:11.429Z,-0.33
2023-03-28T05:58:15.139Z,-0.28
2023-03-28T05:59:20.169Z,-0.26
2023-03-28T06:00:23.603Z,-0.26
2023-03-28T06:01:29.315Z,-0.26
2023-03-28T06:02:34.313Z,-0.27
2023-03-28T06:03:41.090Z,-0.27
2023-03-28T06:04:44.981Z,-0.25
2023-03-28T06:05:52.176Z,-0.23
2023-03-28T06:06:57.185Z,-0.21
2023-03-28T06:08:04.623Z,-0.17
2023-03-28T06:09:07.560Z,-0.11
2023-03-28T06:10:21.450Z,-0.05
2023-03-28T06:11:36.906Z,-0.02
2023-03-28T06:12:47.223Z,0.02
2023-03-28T06:13:50.411Z,-0.08
2023-03-28T06:14:55.036Z,-0.15
2023-03-28T06:16:11.538Z,-0.23
2023-03-28T06:17:14.486Z,-0.28
2023-03-28T06:18:25.943Z,-0.31
2023-03-28T06:19:29.516Z,-0.32
2023-03-28T06:20:32.619Z,-0.32
2023-03-28T06:21:35.497Z,-0.30
2023-03-28T06:22:41.598Z,-0.28
2023-03-28T06:23:46.510Z,-0.27
2023-03-28T06:25:09.882Z,-0.26
2023-03-28T06:26:15.826Z,-0.25
2023-03-28T06:27:19.016Z,-0.22
2023-03-28T06:28:22.381Z,-0.19
2023-03-28T06:29:43.246Z,-0.14
2023-03-28T06:30:50.436Z,-0.11
2023-03-28T06:31:53.867Z,-0.09
2023-03-28T06:32:56.743Z,-0.07
2023-03-28T06:33:59.839Z,-0.01
2023-03-28T06:35:02.731Z,0.05
2023-03-28T06:36:06.089Z,0.07
2023-03-28T06:37:12.299Z,0.09
2023-03-28T06:38:41.420Z,0.10
2023-03-28T06:39:44.476Z,0.13
2023-03-28T06:40:47.544Z,0.24
2023-03-28T06:41:51.694Z,0.37
2023-03-28T06:43:01.247Z,0.40
2023-03-28T06:44:16.832Z,0.43
2023-03-28T06:45:31.438Z,0.43
2023-03-28T06:46:39.621Z,0.39
2023-03-28T06:47:42.554Z,0.41
2023-03-28T06:48:46.162Z,0.43
2023-03-28T06:50:04.427Z,0.40
2023-03-28T06:51:45.722Z,0.37
2023-03-28T06:52:48.741Z,0.37
2023-03-28T06:53:52.425Z,0.41
2023-03-28T06:55:00.487Z,0.46
2023-03-28T06:56:03.728Z,0.51
2023-03-28T06:57:06.826Z,0.53
2023-03-28T06:58:11.586Z,0.52
2023-03-28T06:59:21.466Z,0.50
2023-03-28T07:00:27.984Z,0.48
2023-03-28T07:01:49.665Z,0.46
2023-03-28T07:02:57.749Z,0.42
2023-03-28T07:04:02.480Z,0.37
2023-03-28T07:05:06.667Z,0.35
2023-03-28T07:06:10.768Z,0.33
2023-03-28T07:07:14.628Z,0.35
2023-03-28T07:08:18.431Z,0.37
2023-03-28T07:09:21.303Z,0.37
2023-03-28T07:10:30.515Z,0.37
2023-03-28T07:11:33.852Z,0.38
2023-03-28T07:12:36.955Z,0.43
2023-03-28T07:13:40.361Z,0.42
2023-03-28T07:14:46.971Z,0.40
2023-03-28T07:16:07.302Z,0.44
2023-03-28T07:17:11.865Z,0.58
2023-03-28T07:18:15.027Z,0.62
2023-03-28T07:19:18.482Z,0.64
2023-03-28T07:20:23.464Z,0.63
2023-03-28T07:21:26.682Z,0.59
2023-03-28T07:22:31.642Z,0.56
2023-03-28T07:23:34.593Z,0.55
2023-03-28T07:24:39.631Z,0.54
2023-03-28T07:25:45.268Z,0.56
2023-03-28T07:26:49.024Z,0.58
2023-03-28T07:27:52.619Z,0.57
2023-03-28T07:28:56.368Z,0.54
2023-03-28T07:30:00.487Z,0.54
2023-03-28T07:31:05.595Z,0.56
2023-03-28T07:32:09.982Z,0.58
2023-03-28T07:33:18.828Z,0.56
2023-03-28T07:34:26.866Z,0.51
2023-03-28T07:35:29.995Z,0.46
2023-03-28T07:36:33.061Z,0.41
2023-03-28T07:37:44.490Z,0.41
2023-03-28T07:39:06.114Z,0.38
2023-03-28T07:40:10.925Z,0.36
2023-03-28T07:41:15.653Z,0.34
2023-03-28T07:42:18.671Z,0.31
2023-03-28T07:43:21.564Z,0.32
2023-03-28T07:44:24.489Z,0.32
2023-03-28T07:45:27.613Z,0.31
2023-03-28T07:46:32.254Z,0.29
2023-03-28T07:47:35.174Z,0.30
2023-03-28T07:48:38.772Z,0.33
2023-03-28T07:49:42.146Z,0.35
2023-03-28T07:50:45.593Z,0.34
2023-03-28T07:51:52.613Z,0.33
2023-03-28T07:52:57.909Z,0.38
2023-03-28T07:54:01.960Z,0.45
2023-03-28T07:55:05.444Z,0.47
2023-03-28T07:56:12.195Z,0.48
2023-03-28T07:57:47.759Z,0.49
2023-03-28T07:59:14.824Z,0.51
2023-03-28T08:00:19.554Z,0.56
2023-03-28T08:01:26.390Z,0.59
2023-03-28T08:02:34.336Z,0.59
2023-03-28T08:03:37.820Z,0.56
2023-03-28T08:04:41.169Z,0.53
2023-03-28T08:05:51.634Z,0.52
2023-03-28T08:06:56.122Z,0.54
2023-03-28T08:07:59.506Z,0.54
2023-03-28T08:09:02.654Z,0.53
2023-03-28T08:10:09.975Z,0.49
2023-03-28T08:11:14.176Z,0.49
2023-03-28T08:12:17.230Z,0.50
2023-03-28T08:13:21.177Z,0.52
2023-03-28T08:14:24.795Z,0.52
2023-03-28T08:15:27.852Z,0.47
2023-03-28T08:16:31.465Z,0.41
2023-03-28T08:17:35.257Z,0.36
2023-03-28T08:18:38.261Z,0.31
2023-03-28T08:19:41.584Z,0.27
2023-03-28T08:20:51.759Z,0.25
2023-03-28T08:21:58.921Z,0.30
2023-03-28T08:23:03.119Z,0.35
2023-03-28T08:24:34.895Z,0.42
2023-03-28T08:25:46.457Z,0.53
2023-03-28T08:26:50.857Z,0.62
2023-03-28T08:27:54.073Z,0.65
2023-03-28T08:28:58.987Z,0.62
2023-03-28T08:30:02.304Z,0.62
2023-03-28T08:31:14.464Z,0.64
2023-03-28T08:32:18.088Z,0.64
2023-03-28T08:33:21.509Z,0.64
2023-03-28T08:34:24.501Z,0.65
2023-03-28T08:35:27.711Z,0.69
2023-03-28T08:36:32.813Z,0.74
2023-03-28T08:37:36.101Z,0.73
2023-03-28T08:38:39.007Z,0.70
2023-03-28T08:39:42.872Z,0.70
2023-03-28T08:40:57.864Z,0.71
2023-03-28T08:42:32.692Z,0.73
2023-03-28T08:44:17.048Z,0.75
2023-03-28T08:46:04.471Z,0.78
2023-03-28T08:47:16.337Z,0.89
2023-03-28T08:48:29.578Z,0.97
2023-03-28T08:49:44.917Z,1.03
2023-03-28T08:51:02.951Z,1.01
2023-03-28T08:52:06.644Z,0.97
2023-03-28T08:53:24.286Z,0.89
2023-03-28T08:54:38.844Z,0.76
2023-03-28T08:55:42.929Z,0.66
2023-03-28T08:57:00.906Z,0.59
2023-03-28T08:58:04.792Z,0.44
2023-03-28T08:59:13.057Z,0.32
2023-03-28T09:00:34.296Z,0.21
2023-03-28T09:01:37.727Z,0.12
2023-03-28T09:02:41.510Z,0.08
2023-03-28T09:03:45.005Z,0.04
2023-03-28T09:04:51.865Z,-0.03
2023-03-28T09:06:16.327Z,-0.09
2023-03-28T09:07:32.789Z,-0.14
2023-03-28T09:09:00.984Z,-0.20
2023-03-28T09:10:28.000Z,-0.25
2023-03-28T09:11:58.004Z,-0.20
2023-03-28T09:13:11.810Z,-0.10
2023-03-28T09:14:35.065Z,0.00
2023-03-28T09:15:51.183Z,0.06
2023-03-28T09:16:54.904Z,0.06
2023-03-28T09:18:09.819Z,0.08
2023-03-28T09:19:15.515Z,0.12
2023-03-28T09:20:36.484Z,0.15
2023-03-28T09:22:15.933Z,0.21
2023-03-28T09:24:08.726Z,0.33
2023-03-28T09:25:20.736Z,0.50
2023-03-28T09:26:34.804Z,0.61
2023-03-28T09:27:52.443Z,0.69
2023-03-28T09:29:11.369Z,0.73
2023-03-28T09:30:23.484Z,0.78
2023-03-28T09:31:40.928Z,0.81
2023-03-28T09:32:45.374Z,0.83
2023-03-28T09:33:50.423Z,0.83
2023-03-28T09:35:01.971Z,0.82
2023-03-28T09:36:21.428Z,0.80
2023-03-28T09:37:30.613Z,0.83
2023-03-28T09:38:43.448Z,0.85
2023-03-28T09:40:04.094Z,0.92
2023-03-28T09:41:42.806Z,0.92
2023-03-28T09:43:18.127Z,0.90
2023-03-28T09:44:53.498Z,0.97
2023-03-28T09:46:28.155Z,1.11
2023-03-28T09:47:43.183Z,1.23
2023-03-28T09:48:48.336Z,1.32
2023-03-28T09:50:02.146Z,1.38
2023-03-28T09:51:16.960Z,1.34
2023-03-28T09:52:21.783Z,1.28
2023-03-28T09:53:27.843Z,1.27
2023-03-28T09:54:35.249Z,1.23
2023-03-28T09:55:38.819Z,1.23
2023-03-28T09:56:44.847Z,1.29
2023-03-28T09:58:11.276Z,1.36
2023-03-28T09:59:35.231Z,1.40
2023-03-28T10:00:50.800Z,1.37
2023-03-28T10:02:33.656Z,1.33
2023-03-28T10:03:39.796Z,1.29
2023-03-28T10:04:44.853Z,1.29
2023-03-28T10:05:51.702Z,1.33
2023-03-28T10:07:08.953Z,1.39
2023-03-28T10:08:27.089Z,1.44
2023-03-28T10:09:50.899Z,1.40
2023-03-28T10:11:02.451Z,1.37
2023-03-28T10:12:10.550Z,1.31
2023-03-28T10:13:18.120Z,1.27
2023-03-28T10:14:38.937Z,1.22
2023-03-28T10:15:48.392Z,1.12
2023-03-28T10:16:52.253Z,1.00
2023-03-28T10:18:18.780Z,0.93
2023-03-28T10:19:26.447Z,0.94
2023-03-28T10:20:52.629Z,0.98
2023-03-28T10:21:56.276Z,0.99
2023-03-28T10:23:04.555Z,0.97
2023-03-28T10:24:15.646Z,0.95
2023-03-28T10:25:36.970Z,0.97
2023-03-28T10:26:40.174Z,1.07
2023-03-28T10:27:44.598Z,1.16
2023-03-28T10:28:50.434Z,1.23
2023-03-28T10:29:56.567Z,1.24
2023-03-28T10:31:02.859Z,1.21
2023-03-28T10:32:13.289Z,1.16
2023-03-28T10:33:25.487Z,1.10
2023-03-28T10:35:00.456Z,1.06
2023-03-28T10:36:25.538Z,1.06
2023-03-28T10:37:32.919Z,1.12
2023-03-28T10:38:56.197Z,1.21
2023-03-28T10:40:19.898Z,1.38
2023-03-28T10:42:11.809Z,1.49
2023-03-28T10:43:47.221Z,1.63
2023-03-28T10:45:02.687Z,1.69
2023-03-28T10:46:32.881Z,1.76
2023-03-28T10:48:02.618Z,1.83
2023-03-28T10:49:13.661Z,1.73
2023-03-28T10:50:38.134Z,1.48
2023-03-28T10:51:44.264Z,1.13
2023-03-28T10:53:18.933Z,0.95
2023-03-28T10:54:43.213Z,0.79
2023-03-28T10:56:18.638Z,0.70
2023-03-28T10:57:45.461Z,0.63
2023-03-28T10:59:10.359Z,0.63
2023-03-28T11:00:42.568Z,0.76
2023-03-28T11:01:54.657Z,0.90
2023-03-28T11:03:39.378Z,1.03
2023-03-28T11:05:13.600Z,1.16
2023-03-28T11:06:22.842Z,1.31
2023-03-28T11:07:43.150Z,1.42
2023-03-28T11:09:31.756Z,1.58
2023-03-28T11:11:19.748Z,1.63
2023-03-28T11:14:21.840Z,1.66
2023-03-28T11:14:47.818Z,1.64
2023-03-28T11:16:08.014Z,1.71
2023-03-28T11:17:34.135Z,1.73
2023-03-28T11:19:17.908Z,1.63
2023-03-28T11:20:30.259Z,1.49
2023-03-28T11:22:15.921Z,1.38
2023-03-28T11:23:38.633Z,1.19
2023-03-28T11:25:38.272Z,1.12
2023-03-28T11:27:16.157Z,1.11
2023-03-28T11:28:52.897Z,1.07
2023-03-28T11:30:09.742Z,1.02
2023-03-28T11:31:22.408Z,0.90
2023-03-28T11:32:53.473Z,0.80
2023-03-28T11:34:03.156Z,0.67
2023-03-28T11:35:18.699Z,0.59
2023-03-28T11:36:37.330Z,0.55
2023-03-28T11:38:04.623Z,0.52
2023-03-28T11:39:42.785Z,0.63
2023-03-28T11:41:11.213Z,0.98
2023-03-28T11:42:51.827Z,1.44
2023-03-28T11:43:57.435Z,1.71
2023-03-28T11:45:07.970Z,1.82
2023-03-28T11:46:14.969Z,1.84
2023-03-28T11:47:32.666Z,1.83
2023-03-28T11:49:07.765Z,1.79
2023-03-28T11:50:18.803Z,1.79
2023-03-28T11:51:52.815Z,1.80
2023-03-28T11:53:02.110Z,1.85
2023-03-28T11:54:29.293Z,2.02
2023-03-28T11:55:44.837Z,2.29
2023-03-28T11:57:18.331Z,2.60
2023-03-28T11:58:33.162Z,2.96
2023-03-28T11:59:43.985Z,3.20
2023-03-28T12:01:00.901Z,3.30
2023-03-28T12:02:14.520Z,3.32
2023-03-28T12:03:30.489Z,3.35
2023-03-28T12:04:43.052Z,3.42
2023-03-28T12:06:00.010Z,3.44
2023-03-28T12:07:27.179Z,3.37
2023-03-28T12:08:48.424Z,3.26
2023-03-28T12:10:09.527Z,3.13
2023-03-28T12:11:21.869Z,3.04
2023-03-28T12:12:51.700Z,2.89
2023-03-28T12:14:12.486Z,2.76
2023-03-28T12:15:29.020Z,2.77
2023-03-28T12:16:49.766Z,2.85
2023-03-28T12:18:03.292Z,2.95
2023-03-28T12:19:11.596Z,3.00
2023-03-28T12:20:32.881Z,3.09
2023-03-28T12:21:46.045Z,3.16
2023-03-28T12:22:57.983Z,3.12
2023-03-28T12:24:59.773Z,2.88
2023-03-28T12:26:13.422Z,2.66
2023-03-28T12:27:19.742Z,2.53
2023-03-28T12:28:33.320Z,2.39
2023-03-28T12:29:57.289Z,2.21
2023-03-28T12:31:19.168Z,2.01
2023-03-28T12:32:56.701Z,1.83
2023-03-28T12:34:09.816Z,1.63
2023-03-28T12:35:55.349Z,1.51
2023-03-28T12:37:32.307Z,1.43
2023-03-28T12:38:44.632Z,1.41
2023-03-28T12:40:24.619Z,1.43
2023-03-28T12:41:40.319Z,1.48
2023-03-28T12:42:45.922Z,1.49
2023-03-28T12:44:15.127Z,1.47
2023-03-28T12:45:41.939Z,1.57
2023-03-28T12:46:53.584Z,1.78
2023-03-28T12:48:08.270Z,2.00
2023-03-28T12:49:35.774Z,2.22
2023-03-28T12:50:56.876Z,2.45
2023-03-28T12:52:03.917Z,2.64
2023-03-28T12:53:11.623Z,2.77
2023-03-28T12:54:16.307Z,2.96
2023-03-28T12:55:26.091Z,2.99
2023-03-28T12:56:31.857Z,2.87
2023-03-28T12:57:40.554Z,2.76
2023-03-28T12:58:53.171Z,2.85
2023-03-28T13:00:17.477Z,3.22
2023-03-28T13:01:49.454Z,3.66
2023-03-28T13:03:45.788Z,4.05
2023-03-28T13:05:00.728Z,4.22
2023-03-28T13:06:19.327Z,4.26
2023-03-28T13:07:47.850Z,4.34
2023-03-28T13:09:08.524Z,4.44
2023-03-28T13:10:31.405Z,4.50
2023-03-28T13:11:34.259Z,4.60
2023-03-28T13:12:52.207Z,4.61
2023-03-28T13:14:32.867Z,4.54
2023-03-28T13:15:54.124Z,4.36
2023-03-28T13:17:17.671Z,4.15
2023-03-28T13:18:20.448Z,3.96
2023-03-28T13:19:41.979Z,3.81
2023-03-28T13:20:47.105Z,3.64
2023-03-28T13:21:56.374Z,3.59
2023-03-28T13:23:06.657Z,3.60
2023-03-28T13:24:29.421Z,3.61
2023-03-28T13:25:35.158Z,3.59
2023-03-28T13:26:56.183Z,3.58
2023-03-28T13:28:12.819Z,3.55
2023-03-28T13:29:15.748Z,3.55
2023-03-28T13:30:28.859Z,3.59
2023-03-28T13:31:33.032Z,3.53
2023-03-28T13:32:42.964Z,3.47
2023-03-28T13:33:49.377Z,3.36
2023-03-28T13:34:57.867Z,3.20
2023-03-28T13:36:03.987Z,2.98
2023-03-28T13:37:23.374Z,2.82
2023-03-28T13:38:30.547Z,2.67
2023-03-28T13:39:33.488Z,2.58
2023-03-28T13:40:56.214Z,2.49
2023-03-28T13:41:59.989Z,2.41
2023-03-28T13:43:02.794Z,2.36
2023-03-28T13:44:12.499Z,2.30
2023-03-28T13:45:25.551Z,2.29
2023-03-28T13:47:04.982Z,2.30
2023-03-28T13:48:13.525Z,2.26
2023-03-28T13:49:29.195Z,2.18
2023-03-28T13:50:37.833Z,2.13
2023-03-28T13:52:08.758Z,2.10
2023-03-28T13:53:11.697Z,2.09
2023-03-28T13:54:15.352Z,2.08
2023-03-28T13:55:24.772Z,2.11
2023-03-28T13:56:34.663Z,2.08
2023-03-28T13:57:37.787Z,2.04
2023-03-28T13:58:41.881Z,2.00
2023-03-28T13:59:52.601Z,1.98
2023-03-28T14:01:07.901Z,1.94
2023-03-28T14:02:21.469Z,1.88
2023-03-28T14:03:26.804Z,1.84
2023-03-28T14:04:33.146Z,1.81
2023-03-28T14:05:44.319Z,1.79
2023-03-28T14:06:48.857Z,1.76
2023-03-28T14:07:54.181Z,1.72
2023-03-28T14:09:00.405Z,1.68
2023-03-28T14:10:40.227Z,1.62
2023-03-28T14:11:44.135Z,1.56
2023-03-28T14:12:47.910Z,1.52
2023-03-28T14:14:02.871Z,1.51
2023-03-28T14:15:09.935Z,1.48
2023-03-28T14:16:13.182Z,1.47
2023-03-28T14:17:23.492Z,1.50
2023-03-28T14:18:39.887Z,1.56
2023-03-28T14:19:47.247Z,1.68
2023-03-28T14:20:50.597Z,1.80
2023-03-28T14:21:53.923Z,1.84
2023-03-28T14:23:01.041Z,1.86
2023-03-28T14:24:07.076Z,1.90
2023-03-28T14:25:14.592Z,1.91
2023-03-28T14:26:22.237Z,1.93
2023-03-28T14:27:38.075Z,1.95
2023-03-28T14:28:41.683Z,2.01
2023-03-28T14:29:59.616Z,2.07
2023-03-28T14:31:03.336Z,2.20
2023-03-28T14:32:21.947Z,2.32
2023-03-28T14:33:25.433Z,2.37
2023-03-28T14:34:35.373Z,2.43
2023-03-28T14:35:42.498Z,2.50
2023-03-28T14:37:01.132Z,2.52
2023-03-28T14:38:14.051Z,2.56
2023-03-28T14:39:18.490Z,2.58
2023-03-28T14:40:24.573Z,2.58
2023-03-28T14:41:29.467Z,2.57
2023-03-28T14:42:33.382Z,2.52
2023-03-28T14:43:37.181Z,2.45
2023-03-28T14:44:43.409Z,2.41
2023-03-28T14:45:51.903Z,2.41
2023-03-28T14:46:59.901Z,2.44
2023-03-28T14:48:06.208Z,2.46
2023-03-28T14:49:18.344Z,2.48
2023-03-28T14:50:22.347Z,2.50
2023-03-28T14:51:25.494Z,2.54
2023-03-28T14:52:30.775Z,2.59
2023-03-28T14:53:40.607Z,2.59
2023-03-28T14:54:48.130Z,2.52
2023-03-28T14:55:54.556Z,2.45
2023-03-28T14:56:59.120Z,2.43
2023-03-28T14:58:04.775Z,2.43
2023-03-28T14:59:11.727Z,2.43
2023-03-28T15:00:20.342Z,2.43
2023-03-28T15:01:24.520Z,2.41
2023-03-28T15:02:40.910Z,2.39
2023-03-28T15:03:48.061Z,2.37
2023-03-28T15:04:52.546Z,2.35
2023-03-28T15:05:57.766Z,2.33
2023-03-28T15:07:01.167Z,2.28
2023-03-28T15:08:06.284Z,2.22
2023-03-28T15:09:26.424Z,2.17
2023-03-28T15:10:30.906Z,2.10
2023-03-28T15:11:37.940Z,2.04
2023-03-28T15:12:48.635Z,1.99
2023-03-28T15:13:59.458Z,1.95
2023-03-28T15:15:04.106Z,1.92
2023-03-28T15:16:08.820Z,1.87
2023-03-28T15:17:19.271Z,1.84
2023-03-28T15:18:28.696Z,1.81
2023-03-28T15:19:41.605Z,1.77
2023-03-28T15:20:51.434Z,1.76
2023-03-28T15:22:05.311Z,1.75
2023-03-28T15:23:17.471Z,1.73
2023-03-28T15:24:21.281Z,1.70
2023-03-28T15:25:25.532Z,1.67
2023-03-28T15:26:38.427Z,1.65
2023-03-28T15:27:46.431Z,1.64
2023-03-28T15:28:49.380Z,1.63
2023-03-28T15:29:52.700Z,1.62
2023-03-28T15:31:00.817Z,1.61
2023-03-28T15:32:07.473Z,1.62
2023-03-28T15:33:20.462Z,1.63
2023-03-28T15:34:28.935Z,1.63
2023-03-28T15:35:40.669Z,1.63
2023-03-28T15:37:06.926Z,1.63
2023-03-28T15:38:12.596Z,1.63
2023-03-28T15:39:24.223Z,1.63
2023-03-28T15:40:35.995Z,1.63
2023-03-28T15:41:42.044Z,1.61
2023-03-28T15:42:51.176Z,1.60
2023-03-28T15:43:54.281Z,1.58
2023-03-28T15:44:57.383Z,1.56
2023-03-28T15:46:02.575Z,1.55
2023-03-28T15:47:12.211Z,1.54
2023-03-28T15:48:19.921Z,1.54
2023-03-28T15:49:24.008Z,1.54
2023-03-28T15:50:38.661Z,1.54
2023-03-28T15:51:54.040Z,1.55
2023-03-28T15:52:59.506Z,1.54